Home > Products > Valid Products > TAF

000
FTUS45 KCYS 241700
TAFRWL
TAF
KRWL 241725Z 2418/2518 23025G36KT P6SM FEW120
     FM242000 23023G33KT P6SM VCTS SCT090CB
     FM250200 24013KT P6SM SCT090=



000
FTUS45 KCYS 241700
TAFLAR
TAF
KLAR 241725Z 2418/2518 24020G30KT P6SM FEW090
     FM242100 25020G30KT P6SM VCTS SCT090CB
     FM250100 24012KT P6SM FEW090=



000
FTUS45 KCYS 241700
TAFCYS
TAF
KCYS 241725Z 2418/2518 27024G32KT P6SM SCT120
     FM250200 28012KT P6SM FEW100=



000
FTUS45 KCYS 241700
TAFRWL
TAF
KRWL 241725Z 2418/2518 23025G36KT P6SM FEW120
     FM242000 23023G33KT P6SM VCTS SCT090CB
     FM250200 24013KT P6SM SCT090=



000
FTUS45 KCYS 241700
TAFLAR
TAF
KLAR 241725Z 2418/2518 24020G30KT P6SM FEW090
     FM242100 25020G30KT P6SM VCTS SCT090CB
     FM250100 24012KT P6SM FEW090=



000
FTUS45 KCYS 241700
TAFCYS
TAF
KCYS 241725Z 2418/2518 27024G32KT P6SM SCT120
     FM250200 28012KT P6SM FEW100=



000
FTUS45 KCYS 241500 AAB
TAFCYS
TAF AMD
KCYS 241534Z 2416/2512 27024G34KT P6SM SCT120
     FM242000 28020G30KT P6SM VCTS SCT070CB
     FM250200 28012KT P6SM SCT070=



000
FTUS45 KCYS 241500 AAB
TAFCYS
TAF AMD
KCYS 241534Z 2416/2512 27024G34KT P6SM SCT120
     FM242000 28020G30KT P6SM VCTS SCT070CB
     FM250200 28012KT P6SM SCT070=



000
FTUS45 KCYS 241300 AAA
TAFCYS
TAF AMD
KCYS 241359Z 2414/2512 27014G23KT P6SM SCT120
     FM242000 28020G30KT P6SM VCTS SCT070CB
     FM250200 28012KT P6SM SCT070=



000
FTUS45 KCYS 241100
TAFRWL
TAF
KRWL 241120Z 2412/2512 23012G22KT P6SM SCT120
     FM241500 23018G30KT P6SM BKN120
     FM242000 23020G33KT P6SM VCTS BKN090CB
     FM250200 24011KT P6SM SCT090=



000
FTUS45 KCYS 241100
TAFCYS
TAF
KCYS 241120Z 2412/2512 22011KT P6SM SCT100
     FM241500 27020G30KT P6SM SCT070 BKN120
     FM242000 28020G30KT P6SM VCTS BKN070CB
     FM250200 28012KT P6SM SCT070=



000
FTUS45 KCYS 241100
TAFLAR
TAF
KLAR 241120Z 2412/2512 25013G20KT P6SM SCT090
     FM241500 25022G33KT P6SM SCT090
     FM242000 26022G33KT P6SM VCTS BKN090CB
     FM250200 21012KT P6SM SCT090=



000
FTUS45 KCYS 241100
TAFCYS
TAF
KCYS 241120Z 2412/2512 22011KT P6SM SCT100
     FM241500 27020G30KT P6SM SCT070 BKN120
     FM242000 28020G30KT P6SM VCTS BKN070CB
     FM250200 28012KT P6SM SCT070=



000
FTUS45 KCYS 241100
TAFLAR
TAF
KLAR 241120Z 2412/2512 25013G20KT P6SM SCT090
     FM241500 25022G33KT P6SM SCT090
     FM242000 26022G33KT P6SM VCTS BKN090CB
     FM250200 21012KT P6SM SCT090=



000
FTUS45 KCYS 241100
TAFRWL
TAF
KRWL 241120Z 2412/2512 23012G22KT P6SM SCT120
     FM241500 23018G30KT P6SM BKN120
     FM242000 23020G33KT P6SM VCTS BKN090CB
     FM250200 24011KT P6SM SCT090=



000
FTUS45 KCYS 240500
TAFRWL
TAF
KRWL 240520Z 2406/2506 21007KT P6SM SCT150
     FM241500 22016G26KT P6SM SCT100
     FM241900 22022G30KT P6SM VCTS SCT100CB BKN150
     FM250200 24015G25KT P6SM SCT150=



000
FTUS45 KCYS 240500
TAFLAR
TAF
KLAR 240520Z 2406/2506 18011KT P6SM SCT150
     FM241500 24017G25KT P6SM SCT090
     FM241900 24019G28KT P6SM VCTS SCT090CB BKN150
     FM250300 24013KT P6SM SCT150=



000
FTUS45 KCYS 240500
TAFRWL
TAF
KRWL 240520Z 2406/2506 21007KT P6SM SCT150
     FM241500 22016G26KT P6SM SCT100
     FM241900 22022G30KT P6SM VCTS SCT100CB BKN150
     FM250200 24015G25KT P6SM SCT150=



000
FTUS45 KCYS 240500
TAFLAR
TAF
KLAR 240520Z 2406/2506 18011KT P6SM SCT150
     FM241500 24017G25KT P6SM SCT090
     FM241900 24019G28KT P6SM VCTS SCT090CB BKN150
     FM250300 24013KT P6SM SCT150=



000
FTUS45 KCYS 240500
TAFCYS
TAF
KCYS 240520Z 2406/2506 21011KT P6SM SCT150
     FM241600 27012G22KT P6SM SCT100
     FM242100 26015G23KT P6SM VCTS SCT100CB BKN150
     FM250300 25010KT P6SM SCT150=



000
FTUS45 KCYS 240500
TAFCYS
TAF
KCYS 240520Z 2406/2506 21011KT P6SM SCT150
     FM241600 27012G22KT P6SM SCT100
     FM242100 26015G23KT P6SM VCTS SCT100CB BKN150
     FM250300 25010KT P6SM SCT150=



000
FTUS45 KCYS 232300 RRA
TAFCYS
TAF
KCYS 232354Z 2400/2424 19013G20KT P6SM BKN120
     FM240300 21010KT P6SM SCT150
     FM241600 27012G22KT P6SM SCT100=



000
FTUS45 KCYS 232300 RRA
TAFRWL
TAF
KRWL 232354Z 2400/2424 22014G22KT P6SM FEW100
     FM240200 21008KT P6SM FEW150
     FM241500 22021G29KT P6SM SCT110=



000
FTUS45 KCYS 232300 RRA
TAFLAR
TAF
KLAR 232354Z 2400/2424 16017KT P6SM VCSH SCT120
     FM240300 18011KT P6SM SCT150
     FM241500 24019G27KT P6SM SCT090 BKN150=



000
FTUS45 KCYS 232300 RRA
TAFLAR
TAF
KLAR 232354Z 2400/2424 16017KT P6SM VCSH SCT120
     FM240300 18011KT P6SM SCT150
     FM241500 24019G27KT P6SM SCT090 BKN150=



000
FTUS45 KCYS 232300 RRA
TAFRWL
TAF
KRWL 232354Z 2400/2424 22014G22KT P6SM FEW100
     FM240200 21008KT P6SM FEW150
     FM241500 22021G29KT P6SM SCT110=



000
FTUS45 KCYS 232300 RRA
TAFCYS
TAF
KCYS 232354Z 2400/2424 19013G20KT P6SM BKN120
     FM240300 21010KT P6SM SCT150
     FM241600 27012G22KT P6SM SCT100=



000
FTUS45 KCYS 232100 AAA
TAFLAR
TAF AMD
KLAR 232116Z 2321/2418 19013KT P6SM VCTS FEW080CB BKN200
     FM240100 18010KT P6SM SCT150=



000
FTUS45 KCYS 232100 AAA
TAFLAR
TAF AMD
KLAR 232116Z 2321/2418 19013KT P6SM VCTS FEW080CB BKN200
     FM240100 18010KT P6SM SCT150=



000
FTUS45 KCYS 231700 CCA
TAFRWL
TAF COR
KRWL 231759Z 2318/2418 22014G22KT P6SM FEW100
     FM240100 22007KT P6SM SCT120=



000
FTUS45 KCYS 231700 CCA
TAFRWL
TAF COR
KRWL 231759Z 2318/2418 22014G22KT P6SM FEW100
     FM240100 22007KT P6SM SCT120=



000
FTUS45 KCYS 231700
TAFLAR
TAF
KLAR 231724Z 2318/2418 17013KT P6SM SKC
     FM232100 19013G20KT P6SM VCSH BKN120
     FM240100 18010KT P6SM SCT150=



000
FTUS45 KCYS 231700
TAFLAR
TAF
KLAR 231724Z 2318/2418 17013KT P6SM SKC
     FM232100 19013G20KT P6SM VCSH BKN120
     FM240100 18010KT P6SM SCT150=



000
FTUS45 KCYS 231700
TAFRWL
TAF
KRWL 231724Z 2318/2418 23010KT P6SM SKC
     FM231900 23014G22KT P6SM FEW100
     FM240100 22007KT P6SM SCT120=



000
FTUS45 KCYS 231700
TAFCYS
TAF
KCYS 231724Z 2318/2418 19011G17KT P6SM SCT020
     FM232000 19013G20KT P6SM FEW080
     FM240100 21010KT P6SM BKN120
     FM240800 27009KT P6SM SCT200=



000
FTUS45 KCYS 231700
TAFCYS
TAF
KCYS 231724Z 2318/2418 19011G17KT P6SM SCT020
     FM232000 19013G20KT P6SM FEW080
     FM240100 21010KT P6SM BKN120
     FM240800 27009KT P6SM SCT200=



000
FTUS45 KCYS 231700
TAFRWL
TAF
KRWL 231724Z 2318/2418 23010KT P6SM SKC
     FM231900 23014G22KT P6SM FEW100
     FM240100 22007KT P6SM SCT120=



000
FTUS45 KCYS 231600 AAA
TAFCYS
TAF AMD
KCYS 231611Z 2316/2412 15008KT P6SM OVC018
     FM231730 16008KT P6SM SCT024
     FM232000 18013G20KT P6SM SCT100
     FM240100 21010KT P6SM BKN120=



000
FTUS45 KCYS 231600 AAA
TAFCYS
TAF AMD
KCYS 231611Z 2316/2412 15008KT P6SM OVC018
     FM231730 16008KT P6SM SCT024
     FM232000 18013G20KT P6SM SCT100
     FM240100 21010KT P6SM BKN120=



000
FTUS45 KCYS 231400 AAC
TAFCYS
TAF AMD
KCYS 231456Z 2315/2412 14007KT 5SM BR OVC015
     FM231630 16008KT P6SM FEW020
     FM232000 18013G20KT P6SM SCT100
     FM240100 21010KT P6SM BKN120=



000
FTUS45 KCYS 231400 AAC
TAFCYS
TAF AMD
KCYS 231456Z 2315/2412 14007KT 5SM BR OVC015
     FM231630 16008KT P6SM FEW020
     FM232000 18013G20KT P6SM SCT100
     FM240100 21010KT P6SM BKN120=



000
FTUS45 KCYS 231400 AAB
TAFCYS
TAF AMD
KCYS 231416Z 2314/2412 12006KT 5SM BR OVC005
     FM231700 16008KT P6SM FEW012
     FM232000 18013G20KT P6SM SCT100
     FM240100 21010KT P6SM BKN120=



000
FTUS45 KCYS 231400 AAB
TAFCYS
TAF AMD
KCYS 231416Z 2314/2412 12006KT 5SM BR OVC005
     FM231700 16008KT P6SM FEW012
     FM232000 18013G20KT P6SM SCT100
     FM240100 21010KT P6SM BKN120=



000
FTUS45 KCYS 231400 AAB
TAFLAR
TAF AMD
KLAR 231416Z 2314/2412 18007KT P6SM SKC
     FM232000 20013G20KT P6SM VCSH BKN120
     FM232300 21010KT P6SM BKN150=



000
FTUS45 KCYS 231400 AAB
TAFLAR
TAF AMD
KLAR 231416Z 2314/2412 18007KT P6SM SKC
     FM232000 20013G20KT P6SM VCSH BKN120
     FM232300 21010KT P6SM BKN150=



000
FTUS45 KCYS 231200 AAA
TAFLAR
TAF AMD
KLAR 231254Z 2313/2412 17011KT 4SM BR FEW010
     FM231600 20013G20KT P6SM VCSH BKN120
     FM232300 21010KT P6SM BKN150=



000
FTUS45 KCYS 231200 AAA
TAFLAR
TAF AMD
KLAR 231254Z 2313/2412 17011KT 4SM BR FEW010
     FM231600 20013G20KT P6SM VCSH BKN120
     FM232300 21010KT P6SM BKN150=



000
FTUS45 KCYS 231200 AAA
TAFCYS
TAF AMD
KCYS 231230Z 2313/2412 17010KT 3SM BR BKN006
     FM231500 18008KT P6SM FEW020
     FM232000 18013G20KT P6SM VCTS SCT100CB
     FM240100 21010KT P6SM BKN120=



000
FTUS45 KCYS 231200 AAA
TAFCYS
TAF AMD
KCYS 231230Z 2313/2412 17010KT 3SM BR BKN006
     FM231500 18008KT P6SM FEW020
     FM232000 18013G20KT P6SM VCTS SCT100CB
     FM240100 21010KT P6SM BKN120=



000
FTUS45 KCYS 231100
TAFLAR
TAF
KLAR 231120Z 2312/2412 17011KT 4SM BR FEW010
     FM231800 20013G20KT P6SM VCSH BKN120
     FM232300 21010KT P6SM BKN150=



000
FTUS45 KCYS 231100
TAFRWL
TAF
KRWL 231120Z 2312/2412 06006KT P6SM SKC
     FM231800 22015G25KT P6SM BKN150
     FM240100 22007KT P6SM SCT120=



000
FTUS45 KCYS 231100
TAFRWL
TAF
KRWL 231120Z 2312/2412 06006KT P6SM SKC
     FM231800 22015G25KT P6SM BKN150
     FM240100 22007KT P6SM SCT120=



000
FTUS45 KCYS 231100
TAFCYS
TAF
KCYS 231120Z 2312/2412 19010KT P6SM BKN006
     FM231500 18008KT P6SM FEW020
     FM232000 18013G20KT P6SM VCTS SCT100CB
     FM240100 21010KT P6SM BKN120=



000
FTUS45 KCYS 231100
TAFCYS
TAF
KCYS 231120Z 2312/2412 19010KT P6SM BKN006
     FM231500 18008KT P6SM FEW020
     FM232000 18013G20KT P6SM VCTS SCT100CB
     FM240100 21010KT P6SM BKN120=



000
FTUS45 KCYS 231100
TAFLAR
TAF
KLAR 231120Z 2312/2412 17011KT 4SM BR FEW010
     FM231800 20013G20KT P6SM VCSH BKN120
     FM232300 21010KT P6SM BKN150=



000
FTUS45 KCYS 230900 AAA
TAFCYS
TAF AMD
KCYS 230952Z 2310/2406 17011KT P6SM SCT010
     FM231200 19010KT P6SM BKN009
     FM231400 18008KT P6SM SKC
     FM231900 18013G20KT P6SM VCTS BKN090CB=



000
FTUS45 KCYS 230900 AAA
TAFCYS
TAF AMD
KCYS 230952Z 2310/2406 17011KT P6SM SCT010
     FM231200 19010KT P6SM BKN009
     FM231400 18008KT P6SM SKC
     FM231900 18013G20KT P6SM VCTS BKN090CB=



000
FTUS45 KCYS 230500
TAFRWL
TAF
KRWL 230520Z 2306/2406 VRB05KT P6SM SKC
     FM231800 22015G25KT P6SM BKN150=



000
FTUS45 KCYS 230500
TAFCYS
TAF
KCYS 230520Z 2306/2406 17011KT P6SM SKC
     FM231900 18013G20KT P6SM VCTS BKN090CB=



000
FTUS45 KCYS 230500
TAFCYS
TAF
KCYS 230520Z 2306/2406 17011KT P6SM SKC
     FM231900 18013G20KT P6SM VCTS BKN090CB=



000
FTUS45 KCYS 230500
TAFLAR
TAF
KLAR 230520Z 2306/2406 17007KT P6SM SKC
     FM231800 21013G20KT P6SM VCTS BKN120CB
     FM232200 21010KT P6SM BKN150=



000
FTUS45 KCYS 230500
TAFRWL
TAF
KRWL 230520Z 2306/2406 VRB05KT P6SM SKC
     FM231800 22015G25KT P6SM BKN150=



000
FTUS45 KCYS 230500
TAFLAR
TAF
KLAR 230520Z 2306/2406 17007KT P6SM SKC
     FM231800 21013G20KT P6SM VCTS BKN120CB
     FM232200 21010KT P6SM BKN150=



000
FTUS45 KCYS 222300
TAFLAR
TAF
KLAR 222338Z 2300/2324 10010KT P6SM FEW100
     FM230300 17007KT P6SM SKC
     FM231800 21013G20KT P6SM BKN120=



000
FTUS45 KCYS 222300
TAFRWL
TAF
KRWL 222338Z 2300/2324 VRB05KT P6SM SKC
     FM231800 22015G25KT P6SM BKN150=



000
FTUS45 KCYS 222300
TAFCYS
TAF
KCYS 222338Z 2300/2324 15007KT P6SM VCTS SCT080CB
     FM230300 VRB05KT P6SM SKC
     FM231800 18013G20KT P6SM VCTS BKN120CB=



000
FTUS45 KCYS 222300
TAFCYS
TAF
KCYS 222338Z 2300/2324 15007KT P6SM VCTS SCT080CB
     FM230300 VRB05KT P6SM SKC
     FM231800 18013G20KT P6SM VCTS BKN120CB=



000
FTUS45 KCYS 222300
TAFRWL
TAF
KRWL 222338Z 2300/2324 VRB05KT P6SM SKC
     FM231800 22015G25KT P6SM BKN150=



000
FTUS45 KCYS 222300
TAFLAR
TAF
KLAR 222338Z 2300/2324 10010KT P6SM FEW100
     FM230300 17007KT P6SM SKC
     FM231800 21013G20KT P6SM BKN120=



000
FTUS45 KCYS 221700 RRA
TAFLAR
TAF
KLAR 221742Z 2218/2318 12009KT P6SM SKC
     FM222000 17010G18KT P6SM SCT090
     FM230300 15008KT P6SM SKC=



000
FTUS45 KCYS 221700 RRA
TAFRWL
TAF
KRWL 221742Z 2218/2318 24009G17KT P6SM SKC
     FM230100 08008KT P6SM SKC=



000
FTUS45 KCYS 221700 RRA
TAFLAR
TAF
KLAR 221742Z 2218/2318 12009KT P6SM SKC
     FM222000 17010G18KT P6SM SCT090
     FM230300 15008KT P6SM SKC=



000
FTUS45 KCYS 221700 RRA
TAFCYS
TAF
KCYS 221742Z 2218/2318 08009G17KT P6SM SKC
     FM222100 12010G17KT P6SM SCT090
     FM230300 15006KT P6SM SKC=



000
FTUS45 KCYS 221700 RRA
TAFCYS
TAF
KCYS 221742Z 2218/2318 08009G17KT P6SM SKC
     FM222100 12010G17KT P6SM SCT090
     FM230300 15006KT P6SM SKC=



000
FTUS45 KCYS 221700 RRA
TAFRWL
TAF
KRWL 221742Z 2218/2318 24009G17KT P6SM SKC
     FM230100 08008KT P6SM SKC=



000
FTUS45 KCYS 221100
TAFCYS
TAF
KCYS 221120Z 2212/2312 31010KT P6SM SKC
     FM221900 12011KT P6SM FEW090=



000
FTUS45 KCYS 221100
TAFCYS
TAF
KCYS 221120Z 2212/2312 31010KT P6SM SKC
     FM221900 12011KT P6SM FEW090=



000
FTUS45 KCYS 221100
TAFRWL
TAF
KRWL 221120Z 2212/2312 VRB04KT P6SM SKC
     FM221800 24010G17KT P6SM SKC
     FM230100 10008KT P6SM SKC=



000
FTUS45 KCYS 221100
TAFRWL
TAF
KRWL 221120Z 2212/2312 VRB04KT P6SM SKC
     FM221800 24010G17KT P6SM SKC
     FM230100 10008KT P6SM SKC=



000
FTUS45 KCYS 221100
TAFLAR
TAF
KLAR 221120Z 2212/2312 VRB04KT P6SM FEW120
     FM222000 12010KT P6SM SCT090
     FM230100 15008KT P6SM SKC=



000
FTUS45 KCYS 221100
TAFLAR
TAF
KLAR 221120Z 2212/2312 VRB04KT P6SM FEW120
     FM222000 12010KT P6SM SCT090
     FM230100 15008KT P6SM SKC=



000
FTUS45 KCYS 220500
TAFRWL
TAF
KRWL 220520Z 2206/2306 35007KT P6SM SKC
     FM220900 05006KT P6SM SKC
     FM221500 24010G20KT P6SM SKC
     FM230100 10008KT P6SM SKC=



000
FTUS45 KCYS 220500
TAFCYS
TAF
KCYS 220520Z 2206/2306 28010KT P6SM SKC
     FM221500 36010G20KT P6SM SKC
     FM221900 12010G20KT P6SM SCT090
     FM230100 12009KT P6SM SKC=



000
FTUS45 KCYS 220500
TAFLAR
TAF
KLAR 220520Z 2206/2306 22008KT P6SM SKC
     FM220900 18006KT P6SM SKC
     FM221500 04008KT P6SM SKC
     FM222000 12010G20KT P6SM SCT090
     FM230100 14008KT P6SM SKC=



000
FTUS45 KCYS 220500
TAFRWL
TAF
KRWL 220520Z 2206/2306 35007KT P6SM SKC
     FM220900 05006KT P6SM SKC
     FM221500 24010G20KT P6SM SKC
     FM230100 10008KT P6SM SKC=



000
FTUS45 KCYS 220500
TAFCYS
TAF
KCYS 220520Z 2206/2306 28010KT P6SM SKC
     FM221500 36010G20KT P6SM SKC
     FM221900 12010G20KT P6SM SCT090
     FM230100 12009KT P6SM SKC=



000
FTUS45 KCYS 220500
TAFLAR
TAF
KLAR 220520Z 2206/2306 22008KT P6SM SKC
     FM220900 18006KT P6SM SKC
     FM221500 04008KT P6SM SKC
     FM222000 12010G20KT P6SM SCT090
     FM230100 14008KT P6SM SKC=



000
FTUS45 KCYS 212300
TAFRWL
TAF
KRWL 212320Z 2200/2224 26013G25KT P6SM SCT120
     FM220300 29008KT P6SM SKC
     FM221500 23010G20KT P6SM SKC=



000
FTUS45 KCYS 212300
TAFLAR
TAF
KLAR 212320Z 2200/2224 26014G24KT P6SM SCT120
     FM220200 22009KT P6SM SKC
     FM221100 18006KT P6SM SKC
     FM221500 12012G22KT P6SM SKC=



000
FTUS45 KCYS 212300
TAFRWL
TAF
KRWL 212320Z 2200/2224 26013G25KT P6SM SCT120
     FM220300 29008KT P6SM SKC
     FM221500 23010G20KT P6SM SKC=



000
FTUS45 KCYS 212300
TAFCYS
TAF
KCYS 212320Z 2200/2224 21020G30KT P6SM SCT120
     FM220300 27010KT P6SM SKC
     FM220600 32010KT P6SM SKC
     FM221500 05010G20KT P6SM SKC
     FM221900 13010G20KT P6SM SKC=



000
FTUS45 KCYS 212300
TAFCYS
TAF
KCYS 212320Z 2200/2224 21020G30KT P6SM SCT120
     FM220300 27010KT P6SM SKC
     FM220600 32010KT P6SM SKC
     FM221500 05010G20KT P6SM SKC
     FM221900 13010G20KT P6SM SKC=



000
FTUS45 KCYS 212300
TAFLAR
TAF
KLAR 212320Z 2200/2224 26014G24KT P6SM SCT120
     FM220200 22009KT P6SM SKC
     FM221100 18006KT P6SM SKC
     FM221500 12012G22KT P6SM SKC=



    US Dept of Commerce
    National Oceanic and Atmospheric Administration
    National Weather Service
    1325 East West Highway
    Silver Spring, MD 20910
    Page Author: NWS Internet Services Team
Disclaimer
Information Quality
Credits
Glossary
Privacy Policy
Freedom of Information Act (FOIA)
About Us
Career Opportunities